Time;durP1;ratioP1;P1;durP2;ratioP2;P2;SDS_P1;SDS_P2;PMS_P1;PMS_P2;Temp;Humidity;BMP_temperature;BMP_pressure;BME280_temperature;BME280_humidity;BME280_pressure;Samples;Min_cycle;Max_cycle;Signal;HPM_P1;HPM_P2
2021/09/17 00:00:57;;;;;;;31.08;23.95;;;25.30;56.80;;;;;;4731199;58;21060;-34
2021/09/17 00:05:58;;;;;;;31.77;23.75;;;25.30;56.80;;;;;;4740184;55;21104;-31
2021/09/17 00:10:58;;;;;;;30.70;24.08;;;25.30;56.70;;;;;;4739621;55;21041;-30
2021/09/17 00:15:59;;;;;;;29.92;22.98;;;25.30;56.80;;;;;;4735727;54;21545;-32
2021/09/17 00:21:00;;;;;;;30.42;23.48;;;25.30;56.80;;;;;;4763253;55;21495;-30
2021/09/17 00:26:01;;;;;;;28.62;22.62;;;25.30;56.80;;;;;;4742515;55;21053;-32
2021/09/17 00:31:02;;;;;;;27.25;22.92;;;25.30;56.80;;;;;;4742822;55;21025;-31
2021/09/17 00:36:04;;;;;;;26.40;21.95;;;25.30;56.90;;;;;;4742843;54;21085;-32
2021/09/17 00:41:05;;;;;;;26.37;22.50;;;25.30;56.80;;;;;;4763019;55;21010;-32
2021/09/17 00:46:06;;;;;;;26.55;21.85;;;25.30;56.80;;;;;;4743141;55;21033;-33
2021/09/17 00:51:07;;;;;;;28.35;21.98;;;25.30;56.80;;;;;;4742114;54;21033;-29
2021/09/17 00:56:08;;;;;;;27.48;21.87;;;25.30;56.80;;;;;;4742920;55;21045;-34
2021/09/17 01:01:09;;;;;;;27.42;21.80;;;25.20;56.80;;;;;;4795275;55;21069;-34
2021/09/17 01:06:10;;;;;;;27.58;21.70;;;25.30;56.80;;;;;;4731034;59;21081;-30
2021/09/17 01:11:11;;;;;;;25.88;21.98;;;25.30;56.80;;;;;;4777937;55;21590;-29
2021/09/17 01:16:12;;;;;;;25.92;21.85;;;25.30;56.80;;;;;;4739466;54;21058;-25
2021/09/17 01:21:13;;;;;;;26.83;22.25;;;25.30;56.80;;;;;;4731548;59;21068;-31
2021/09/17 01:26:14;;;;;;;27.77;21.58;;;25.30;56.80;;;;;;4765210;55;21021;-33
2021/09/17 01:31:15;;;;;;;24.00;21.12;;;25.20;56.70;;;;;;4744058;55;21053;-31
2021/09/17 01:36:16;;;;;;;25.67;20.58;;;25.30;56.80;;;;;;4764140;55;21487;-28
2021/09/17 01:41:17;;;;;;;26.77;21.48;;;25.30;56.80;;;;;;4770400;55;21084;-31
2021/09/17 01:46:20;;;;;;;23.70;20.90;;;25.20;56.80;;;;;;4799687;55;20997;-34
2021/09/17 01:51:21;;;;;;;26.12;22.02;;;25.20;56.70;;;;;;4757003;55;21602;-31
2021/09/17 01:56:23;;;;;;;23.58;21.00;;;25.20;56.80;;;;;;4741151;55;20989;-33
2021/09/17 02:01:24;;;;;;;23.50;20.45;;;25.20;56.80;;;;;;4769009;55;21523;-33
2021/09/17 02:06:25;;;;;;;23.50;20.25;;;25.20;56.80;;;;;;4739485;54;21130;-30
2021/09/17 02:11:26;;;;;;;27.48;20.75;;;25.30;56.80;;;;;;4745075;55;21072;-31
2021/09/17 02:16:28;;;;;;;25.88;19.85;;;25.20;56.80;;;;;;4765740;55;21505;-33
2021/09/17 02:21:29;;;;;;;25.02;19.75;;;25.20;56.80;;;;;;4763322;54;21515;-31
2021/09/17 02:26:30;;;;;;;24.23;19.48;;;25.20;56.80;;;;;;4751875;55;21069;-32
2021/09/17 02:31:31;;;;;;;22.10;18.65;;;25.20;56.80;;;;;;4731828;56;21081;-30
2021/09/17 02:36:33;;;;;;;23.27;20.12;;;25.20;56.80;;;;;;4740012;54;21033;-33
2021/09/17 02:41:34;;;;;;;24.00;19.90;;;25.20;56.80;;;;;;4739123;55;21484;-32
2021/09/17 02:46:35;;;;;;;22.92;19.30;;;25.20;56.80;;;;;;4740914;55;21104;-34
2021/09/17 02:51:35;;;;;;;22.25;19.02;;;25.20;56.80;;;;;;4732915;55;21037;-31
2021/09/17 02:56:36;;;;;;;22.30;18.98;;;25.20;56.80;;;;;;4731186;59;21013;-31
2021/09/17 03:01:37;;;;;;;24.12;19.25;;;25.20;56.80;;;;;;4741638;55;21537;-33
2021/09/17 03:06:38;;;;;;;21.25;18.83;;;25.20;56.80;;;;;;4733637;55;21546;-33
2021/09/17 03:11:39;;;;;;;21.98;18.77;;;25.20;56.80;;;;;;4736996;55;21029;-32
2021/09/17 03:16:39;;;;;;;22.77;18.50;;;25.20;56.80;;;;;;4761935;54;21040;-33
2021/09/17 03:21:40;;;;;;;21.83;18.67;;;25.20;56.80;;;;;;4760435;55;21625;-30
2021/09/17 03:26:41;;;;;;;22.92;18.27;;;25.20;56.90;;;;;;4768331;54;21017;-33
2021/09/17 03:31:42;;;;;;;21.37;18.20;;;25.20;56.90;;;;;;4731341;59;22161;-32
2021/09/17 03:36:43;;;;;;;22.40;17.80;;;25.20;56.90;;;;;;4742170;54;21042;-28
2021/09/17 03:41:45;;;;;;;20.67;16.83;;;25.20;57.00;;;;;;4743753;55;20993;-33
2021/09/17 03:46:46;;;;;;;20.85;17.27;;;25.20;56.90;;;;;;4791053;54;21467;-31
2021/09/17 03:51:47;;;;;;;22.83;17.52;;;25.20;57.00;;;;;;4743424;54;21029;-33
2021/09/17 03:56:48;;;;;;;23.87;17.70;;;25.20;56.90;;;;;;4738279;55;20985;-32
2021/09/17 04:01:49;;;;;;;23.55;17.67;;;25.20;56.90;;;;;;4731792;59;21547;-34
2021/09/17 04:06:49;;;;;;;22.87;18.12;;;25.20;56.90;;;;;;4743250;54;21028;-34
2021/09/17 04:11:50;;;;;;;21.92;17.58;;;25.20;57.00;;;;;;4731122;59;21374;-32
2021/09/17 04:16:51;;;;;;;21.52;17.87;;;25.20;57.00;;;;;;4736641;54;21089;-31
2021/09/17 04:21:52;;;;;;;22.35;16.87;;;25.20;57.00;;;;;;4741002;54;21053;-33
2021/09/17 04:26:53;;;;;;;22.62;17.00;;;25.20;57.00;;;;;;4736006;55;21024;-32
2021/09/17 04:31:53;;;;;;;19.83;16.15;;;25.20;57.00;;;;;;4786097;55;21127;-34
2021/09/17 04:36:54;;;;;;;24.42;15.98;;;25.20;57.00;;;;;;4730956;59;21574;-32
2021/09/17 04:41:55;;;;;;;20.83;16.60;;;25.20;57.00;;;;;;4737148;54;21096;-33
2021/09/17 04:46:56;;;;;;;19.65;15.88;;;25.20;57.10;;;;;;4766815;54;20994;-35
2021/09/17 04:51:57;;;;;;;20.62;15.60;;;25.20;57.10;;;;;;4736440;55;21025;-33
2021/09/17 04:56:57;;;;;;;21.50;16.15;;;25.20;57.20;;;;;;4779547;54;21065;-31
2021/09/17 05:01:58;;;;;;;19.02;15.27;;;25.20;57.10;;;;;;4769822;54;21025;-31
2021/09/17 05:06:59;;;;;;;23.40;16.10;;;25.20;57.10;;;;;;4744972;55;21460;-33
2021/09/17 05:12:00;;;;;;;22.83;15.73;;;25.20;57.20;;;;;;4743166;55;21017;-35
2021/09/17 05:17:01;;;;;;;22.77;15.48;;;25.20;57.10;;;;;;4745745;54;21065;-34
2021/09/17 05:22:02;;;;;;;19.17;15.45;;;25.20;57.10;;;;;;4746714;55;21057;-34
2021/09/17 05:27:06;;;;;;;18.25;15.05;;;25.20;57.10;;;;;;4766038;54;21521;-33
2021/09/17 05:32:07;;;;;;;21.35;15.38;;;25.20;57.10;;;;;;4750535;54;21021;-33
2021/09/17 05:37:08;;;;;;;21.48;15.88;;;25.20;57.10;;;;;;4731557;59;21005;-31
2021/09/17 05:42:09;;;;;;;20.25;14.55;;;25.10;57.10;;;;;;4760661;55;21088;-33
2021/09/17 05:47:10;;;;;;;19.37;14.20;;;25.20;57.10;;;;;;4758650;55;21001;-34
2021/09/17 05:52:11;;;;;;;21.60;15.45;;;25.10;57.10;;;;;;4731330;56;21077;-34
2021/09/17 05:57:12;;;;;;;20.10;14.82;;;25.10;57.10;;;;;;4756750;55;21487;-32
2021/09/17 06:02:13;;;;;;;18.87;14.57;;;25.10;57.10;;;;;;4776217;55;21009;-33
2021/09/17 06:07:16;;;;;;;22.02;14.50;;;25.10;57.10;;;;;;4743879;55;21535;-34
2021/09/17 06:12:17;;;;;;;19.20;13.40;;;25.10;57.10;;;;;;4738071;55;21009;-32
2021/09/17 06:17:18;;;;;;;21.95;15.45;;;25.10;57.10;;;;;;4739342;55;21042;-32
2021/09/17 06:22:19;;;;;;;17.77;14.73;;;25.10;57.10;;;;;;4841615;55;21022;-33
2021/09/17 06:27:19;;;;;;;19.80;14.80;;;25.10;57.10;;;;;;4731494;59;21009;-32
2021/09/17 06:32:20;;;;;;;19.20;14.73;;;25.10;57.10;;;;;;4733248;55;21033;-33
2021/09/17 06:37:21;;;;;;;18.80;14.45;;;25.10;57.10;;;;;;4742143;55;21069;-31
2021/09/17 06:42:22;;;;;;;21.98;14.60;;;25.10;57.10;;;;;;4781714;55;21012;-28
2021/09/17 06:47:22;;;;;;;19.85;14.77;;;25.10;57.10;;;;;;4769171;55;21037;-35
2021/09/17 06:52:23;;;;;;;19.85;15.02;;;25.10;57.10;;;;;;4743097;55;21595;-32
2021/09/17 06:57:24;;;;;;;18.98;14.00;;;25.10;57.10;;;;;;4736168;55;21009;-29
2021/09/17 07:02:25;;;;;;;18.45;14.95;;;25.10;57.10;;;;;;4745058;55;21025;-35
2021/09/17 07:07:26;;;;;;;18.00;14.02;;;25.10;57.10;;;;;;4758616;55;21028;-29
2021/09/17 07:12:26;;;;;;;17.67;14.10;;;25.10;57.10;;;;;;4744705;55;21034;-30
2021/09/17 07:17:27;;;;;;;19.20;13.73;;;25.10;57.10;;;;;;4753770;54;21626;-31
2021/09/17 07:22:28;;;;;;;19.87;14.30;;;25.10;57.20;;;;;;4818385;54;21029;-32
2021/09/17 07:27:30;;;;;;;16.33;13.88;;;25.10;57.40;;;;;;4774128;55;21045;-32
2021/09/17 07:32:31;;;;;;;21.45;15.07;;;25.20;57.50;;;;;;4730920;58;21092;-29
2021/09/17 07:37:32;;;;;;;21.33;14.52;;;25.20;57.70;;;;;;4772791;54;21089;-34
2021/09/17 07:42:33;;;;;;;21.00;15.13;;;25.30;57.80;;;;;;4770678;55;21579;-31
2021/09/17 07:47:34;;;;;;;22.90;15.40;;;25.30;57.80;;;;;;4746679;55;21009;-31
2021/09/17 07:52:35;;;;;;;23.05;15.82;;;25.30;58.00;;;;;;4745001;55;21575;-34
2021/09/17 07:57:36;;;;;;;22.02;16.73;;;25.30;57.90;;;;;;4761554;55;21112;-32
2021/09/17 08:02:38;;;;;;;23.10;16.42;;;25.40;57.90;;;;;;4731269;59;21049;-30
2021/09/17 08:07:39;;;;;;;24.25;16.87;;;25.40;57.80;;;;;;4755531;55;21059;-31
2021/09/17 08:12:40;;;;;;;24.23;16.50;;;25.40;57.70;;;;;;4735608;54;21122;-31
2021/09/17 08:17:41;;;;;;;25.05;17.80;;;25.40;57.60;;;;;;4746010;54;21077;-31
2021/09/17 08:22:41;;;;;;;22.27;16.30;;;25.40;57.60;;;;;;4797541;54;21042;-30
2021/09/17 08:27:42;;;;;;;24.73;18.10;;;25.40;57.50;;;;;;4773213;54;21096;-29
2021/09/17 08:32:43;;;;;;;25.37;17.33;;;25.40;57.50;;;;;;4742701;55;21894;-31
2021/09/17 08:37:44;;;;;;;23.83;17.87;;;25.50;57.60;;;;;;4734045;55;21487;-32
2021/09/17 08:42:45;;;;;;;27.13;18.17;;;25.50;57.70;;;;;;4746989;55;21334;-32
2021/09/17 08:47:49;;;;;;;22.98;17.87;;;25.50;57.80;;;;;;4748475;54;21134;-31
2021/09/17 08:52:49;;;;;;;21.50;17.12;;;25.50;57.90;;;;;;4769823;54;21599;-30
2021/09/17 08:57:51;;;;;;;20.77;17.65;;;25.50;58.00;;;;;;4734856;54;21080;-28
2021/09/17 09:02:54;;;;;;;22.50;17.10;;;25.50;58.10;;;;;;4746532;55;21006;-32
2021/09/17 09:07:55;;;;;;;25.92;17.70;;;25.50;58.20;;;;;;4739397;54;21984;-32
2021/09/17 09:13:03;;;;;;;23.73;17.80;;;25.60;58.30;;;;;;4746517;54;21120;-32
2021/09/17 09:18:11;;;;;;;22.58;17.02;;;25.50;58.30;;;;;;4748589;54;21042;-30
2021/09/17 09:23:24;;;;;;;20.95;16.83;;;25.60;58.50;;;;;;4757968;54;21512;-31
2021/09/17 09:28:28;;;;;;;26.05;18.33;;;25.60;58.50;;;;;;4746903;54;21045;-31
2021/09/17 09:33:40;;;;;;;22.65;18.65;;;25.70;58.60;;;;;;4747232;54;21107;-30
2021/09/17 09:38:55;;;;;;;36.10;29.73;;;25.60;58.50;;;;;;4794231;54;21033;-32
2021/09/17 09:44:14;;;;;;;60.28;46.08;;;25.70;58.60;;;;;;4741331;54;21041;-29
2021/09/17 09:49:26;;;;;;;79.37;57.45;;;25.60;58.40;;;;;;4753272;54;21537;-29
2021/09/17 09:54:30;;;;;;;87.53;63.67;;;25.60;58.10;;;;;;4753477;54;21112;-33
2021/09/17 09:59:33;;;;;;;98.60;65.55;;;25.70;57.90;;;;;;4766756;54;21017;-32
2021/09/17 10:04:34;;;;;;;86.68;62.33;;;25.60;57.60;;;;;;4743962;54;20989;-33
2021/09/17 10:09:37;;;;;;;91.95;63.42;;;25.70;57.60;;;;;;4730786;59;21500;-29
2021/09/17 10:14:42;;;;;;;93.35;65.97;;;25.70;57.60;;;;;;4787420;54;21033;-32
2021/09/17 10:19:50;;;;;;;92.95;64.40;;;25.70;57.50;;;;;;4747843;54;21100;-30
2021/09/17 10:25:12;;;;;;;91.45;63.28;;;25.70;57.30;;;;;;4734191;54;20990;-32
2021/09/17 10:30:16;;;;;;;88.53;62.62;;;25.70;57.00;;;;;;4751236;54;21033;-31
2021/09/17 10:35:40;;;;;;;82.47;58.92;;;25.70;56.90;;;;;;4731216;58;21654;-33
2021/09/17 10:41:14;;;;;;;99.13;63.63;;;25.70;56.90;;;;;;4751932;54;21050;-30
2021/09/17 10:46:48;;;;;;;95.10;67.93;;;25.70;56.70;;;;;;4734854;55;21041;-33
2021/09/17 10:51:49;;;;;;;94.57;70.87;;;25.70;56.60;;;;;;4731940;55;21037;-32
2021/09/17 10:57:02;;;;;;;100.93;70.65;;;25.70;56.50;;;;;;4732382;55;21495;-32
2021/09/17 11:02:05;;;;;;;94.87;69.25;;;25.70;56.60;;;;;;4733855;54;21099;-30
2021/09/17 11:09:02;;;;;;;100.03;71.70;;;25.80;57.00;;;;;;4731136;58;22265;-31
2021/09/17 11:14:05;;;;;;;98.47;73.50;;;25.80;57.50;;;;;;4737280;54;21001;-30
2021/09/17 11:19:13;;;;;;;99.82;75.05;;;25.80;57.70;;;;;;4787583;54;21025;-33
2021/09/17 11:24:25;;;;;;;108.12;77.22;;;25.80;57.70;;;;;;4733534;54;21057;-33
2021/09/17 11:29:26;;;;;;;107.80;81.03;;;25.90;57.80;;;;;;4731347;54;21617;-28
2021/09/17 11:34:28;;;;;;;113.25;85.80;;;25.90;57.80;;;;;;4747011;55;21654;-30
2021/09/17 11:39:38;;;;;;;110.15;83.80;;;25.90;57.70;;;;;;4742457;54;21065;-31
2021/09/17 11:44:48;;;;;;;110.47;81.30;;;25.90;57.50;;;;;;4749315;54;21042;-30
2021/09/17 11:49:53;;;;;;;104.30;80.07;;;25.90;57.40;;;;;;4745842;54;21584;-31
2021/09/17 11:55:06;;;;;;;104.60;78.37;;;26.00;57.30;;;;;;4736648;54;21025;-30
2021/09/17 12:00:21;;;;;;;101.68;76.40;;;26.00;57.10;;;;;;4747529;54;20981;-28
2021/09/17 12:05:24;;;;;;;103.57;75.33;;;26.00;57.00;;;;;;4795908;54;21606;-28
2021/09/17 12:10:49;;;;;;;97.00;71.85;;;26.10;56.90;;;;;;4732992;54;21022;-33
2021/09/17 12:15:56;;;;;;;77.60;58.33;;;26.10;56.40;;;;;;4731126;59;21057;-28
2021/09/17 12:20:59;;;;;;;64.53;47.62;;;26.10;56.00;;;;;;4772401;54;21482;-24
2021/09/17 12:26:33;;;;;;;54.45;40.20;;;26.10;55.60;;;;;;4750365;54;21479;-28
2021/09/17 12:31:36;;;;;;;45.92;34.42;;;26.10;55.30;;;;;;4731875;59;21036;-31
2021/09/17 12:36:38;;;;;;;45.83;31.30;;;26.10;55.20;;;;;;4760547;54;20994;-31
2021/09/17 12:41:39;;;;;;;45.85;33.83;;;26.10;55.20;;;;;;4763415;55;21590;-29
2021/09/17 12:46:42;;;;;;;50.97;36.38;;;26.10;55.40;;;;;;4737669;55;21013;-32
2021/09/17 12:51:55;;;;;;;54.28;38.67;;;26.10;56.10;;;;;;4737670;55;21128;-29
2021/09/17 12:57:12;;;;;;;67.15;42.55;;;26.10;55.60;;;;;;4742849;54;21583;-28
2021/09/17 13:02:12;;;;;;;59.92;40.60;;;26.10;55.90;;;;;;4742656;54;21021;-28
2021/09/17 13:07:13;;;;;;;54.45;37.20;;;26.10;56.10;;;;;;4731465;59;20993;-29
2021/09/17 13:12:14;;;;;;;51.78;36.75;;;26.10;56.30;;;;;;4732061;54;21030;-31
2021/09/17 13:17:15;;;;;;;51.70;33.33;;;26.10;56.30;;;;;;4768613;55;21511;-31
2021/09/17 13:22:18;;;;;;;49.17;33.08;;;26.20;56.60;;;;;;4735863;55;21009;-32
2021/09/17 13:27:19;;;;;;;44.50;30.77;;;26.10;56.60;;;;;;4740342;55;21567;-32
2021/09/17 13:32:22;;;;;;;45.25;31.45;;;26.10;56.60;;;;;;4743227;55;21025;-32
2021/09/17 13:37:23;;;;;;;43.92;30.80;;;26.10;56.50;;;;;;4731438;59;21491;-32
2021/09/17 13:42:25;;;;;;;40.65;30.60;;;26.10;56.50;;;;;;4734073;54;21013;-31
2021/09/17 13:47:25;;;;;;;41.35;30.98;;;26.10;56.50;;;;;;4732307;59;21013;-28
2021/09/17 13:52:26;;;;;;;39.10;30.67;;;26.10;56.70;;;;;;4752523;55;21590;-31
2021/09/17 13:57:27;;;;;;;44.47;30.00;;;26.20;57.20;;;;;;4731169;59;21013;-32
2021/09/17 14:02:29;;;;;;;41.45;29.70;;;26.20;57.60;;;;;;4731272;59;21479;-31
2021/09/17 14:07:31;;;;;;;41.58;30.77;;;26.20;57.80;;;;;;4735649;55;21005;-31
2021/09/17 14:12:32;;;;;;;39.92;29.67;;;26.20;58.10;;;;;;4771565;54;21566;-30
2021/09/17 14:17:33;;;;;;;40.15;29.30;;;26.20;58.20;;;;;;4736208;54;21057;-30
2021/09/17 14:22:34;;;;;;;39.28;28.95;;;26.20;58.30;;;;;;4735984;55;21037;-33
2021/09/17 14:27:35;;;;;;;44.65;29.55;;;26.20;58.40;;;;;;4732298;55;21206;-32
2021/09/17 14:32:36;;;;;;;42.62;31.33;;;26.20;58.40;;;;;;4746296;55;21402;-34
2021/09/17 14:37:37;;;;;;;38.83;30.17;;;26.20;58.40;;;;;;4747475;54;21167;-36
2021/09/17 14:42:38;;;;;;;36.72;29.83;;;26.10;58.40;;;;;;4737713;54;21583;-33
2021/09/17 14:47:39;;;;;;;44.60;29.70;;;26.10;58.50;;;;;;4752685;55;21014;-33
2021/09/17 14:52:40;;;;;;;40.47;29.37;;;26.10;58.50;;;;;;4736594;55;21101;-33
2021/09/17 14:57:41;;;;;;;39.53;30.30;;;26.10;58.40;;;;;;4746760;55;21567;-31
2021/09/17 15:02:42;;;;;;;36.92;29.80;;;26.10;58.40;;;;;;4743779;55;20990;-33
2021/09/17 15:07:43;;;;;;;35.92;29.55;;;26.00;58.30;;;;;;4738682;55;21144;-34
2021/09/17 15:12:44;;;;;;;38.55;30.52;;;26.00;58.30;;;;;;4747532;54;21127;-33
2021/09/17 15:17:47;;;;;;;36.42;29.17;;;26.00;58.30;;;;;;4763987;55;21041;-34
2021/09/17 15:22:49;;;;;;;38.17;30.65;;;26.00;58.30;;;;;;4736191;55;21356;-31
2021/09/17 15:27:53;;;;;;;38.47;31.35;;;26.00;58.30;;;;;;4730942;59;21060;-32
2021/09/17 15:32:55;;;;;;;39.28;30.92;;;25.90;58.30;;;;;;4747882;55;22054;-29
2021/09/17 15:37:56;;;;;;;36.95;29.27;;;25.90;58.30;;;;;;4748606;55;21832;-34
2021/09/17 15:42:58;;;;;;;36.90;29.75;;;25.90;58.30;;;;;;4773989;55;21117;-35
2021/09/17 15:47:58;;;;;;;36.42;30.08;;;25.90;58.30;;;;;;4769563;55;21496;-35
2021/09/17 15:52:59;;;;;;;37.38;30.23;;;25.90;58.30;;;;;;4747451;55;21393;-31
2021/09/17 15:58:00;;;;;;;34.65;29.23;;;25.90;58.30;;;;;;4743203;55;21081;-31
2021/09/17 16:03:01;;;;;;;37.05;30.23;;;25.80;58.20;;;;;;4734898;55;21029;-32
2021/09/17 16:08:02;;;;;;;35.85;30.15;;;25.80;58.10;;;;;;4775230;55;21817;-33
2021/09/17 16:13:03;;;;;;;35.95;29.55;;;25.80;58.10;;;;;;4749080;55;21002;-31
2021/09/17 16:18:05;;;;;;;34.55;29.17;;;25.80;58.40;;;;;;4730662;56;21129;-28
2021/09/17 16:23:06;;;;;;;35.90;29.75;;;25.80;58.20;;;;;;4741575;54;21670;-31
2021/09/17 16:28:07;;;;;;;38.95;31.40;;;25.80;58.20;;;;;;4742962;54;21117;-31
2021/09/17 16:33:08;;;;;;;38.85;30.60;;;25.80;58.20;;;;;;4742629;55;21125;-32
2021/09/17 16:38:11;;;;;;;37.92;31.40;;;25.80;58.20;;;;;;4748131;54;21113;-34
2021/09/17 16:43:12;;;;;;;34.92;31.12;;;25.80;58.20;;;;;;4731517;59;21276;-32
2021/09/17 16:48:13;;;;;;;37.22;30.90;;;25.80;58.20;;;;;;4771132;55;21029;-33
2021/09/17 16:53:17;;;;;;;32.72;29.23;;;25.70;58.20;;;;;;4771491;55;21073;-33
2021/09/17 16:58:17;;;;;;;34.22;29.92;;;25.70;58.20;;;;;;4760633;54;21033;-31
2021/09/17 17:03:18;;;;;;;35.53;31.10;;;25.70;58.20;;;;;;4768140;54;21119;-32
2021/09/17 17:08:20;;;;;;;37.83;30.92;;;25.70;58.90;;;;;;4735081;55;21366;-32
2021/09/17 17:13:21;;;;;;;35.90;30.62;;;25.70;58.30;;;;;;4743111;54;21073;-32
2021/09/17 17:18:22;;;;;;;34.30;29.87;;;25.70;58.30;;;;;;4741417;55;21539;-33
2021/09/17 17:23:24;;;;;;;34.08;30.02;;;25.70;58.30;;;;;;4756280;54;21020;-31
2021/09/17 17:28:25;;;;;;;39.67;30.83;;;25.70;58.30;;;;;;4734606;55;21073;-31
2021/09/17 17:33:26;;;;;;;36.72;29.92;;;25.70;58.90;;;;;;4740986;55;21547;-32
2021/09/17 17:38:27;;;;;;;37.63;30.90;;;25.70;58.40;;;;;;4756658;55;21029;-31
2021/09/17 17:43:29;;;;;;;34.90;29.58;;;25.70;58.40;;;;;;4731306;56;21065;-32
2021/09/17 17:48:31;;;;;;;34.88;30.15;;;25.70;57.80;;;;;;4775890;54;21080;-33
2021/09/17 17:53:31;;;;;;;35.78;29.58;;;25.70;58.40;;;;;;4753567;55;21060;-33
2021/09/17 17:58:32;;;;;;;34.45;29.00;;;25.70;58.40;;;;;;4742257;55;21291;-33
2021/09/17 18:03:33;;;;;;;33.50;28.05;;;25.70;58.40;;;;;;4748462;55;21021;-34
2021/09/17 18:08:34;;;;;;;35.03;29.73;;;25.70;58.40;;;;;;4790846;55;21061;-33
2021/09/17 18:13:38;;;;;;;33.15;27.90;;;25.70;58.50;;;;;;4732763;55;21073;-33
2021/09/17 18:18:39;;;;;;;34.35;28.58;;;25.70;58.50;;;;;;4760876;54;21109;-33
2021/09/17 18:23:40;;;;;;;33.40;29.08;;;25.70;58.50;;;;;;4733519;55;21128;-32
2021/09/17 18:28:41;;;;;;;32.13;28.17;;;25.70;58.50;;;;;;4748158;54;21033;-33
2021/09/17 18:33:42;;;;;;;33.75;27.65;;;25.70;58.50;;;;;;4730642;58;21017;-33
2021/09/17 18:38:43;;;;;;;33.47;28.73;;;25.70;58.50;;;;;;4756701;54;21596;-29
2021/09/17 18:43:44;;;;;;;33.17;28.20;;;25.70;58.60;;;;;;4737464;55;21017;-32
2021/09/17 18:48:46;;;;;;;33.42;27.62;;;25.70;58.50;;;;;;4737425;55;21021;-29
2021/09/17 18:53:47;;;;;;;36.20;29.48;;;25.70;58.60;;;;;;4734040;54;21475;-28
2021/09/17 18:58:48;;;;;;;32.83;27.37;;;25.70;58.60;;;;;;4761772;55;21009;-32
2021/09/17 19:03:49;;;;;;;32.17;28.38;;;25.70;58.60;;;;;;4743695;54;21065;-34
2021/09/17 19:08:50;;;;;;;29.63;26.45;;;25.70;58.60;;;;;;4761743;54;21566;-31
2021/09/17 19:13:52;;;;;;;31.52;28.15;;;25.70;58.60;;;;;;4785683;55;21029;-32
2021/09/17 19:18:53;;;;;;;32.40;27.80;;;25.70;58.60;;;;;;4732990;55;21507;-33
2021/09/17 19:23:54;;;;;;;31.83;26.95;;;25.70;58.70;;;;;;4734204;55;21053;-32
2021/09/17 19:28:55;;;;;;;31.20;27.08;;;25.60;58.50;;;;;;4730901;59;21080;-33
2021/09/17 19:33:56;;;;;;;30.48;25.83;;;25.60;58.50;;;;;;4730898;59;21013;-34
2021/09/17 19:38:56;;;;;;;28.58;25.00;;;25.60;59.10;;;;;;4736347;55;21467;-25
2021/09/17 19:43:57;;;;;;;32.00;25.70;;;25.70;58.60;;;;;;4737478;54;21070;-32
2021/09/17 19:48:58;;;;;;;29.70;26.20;;;25.60;58.60;;;;;;4737747;54;21001;-33
2021/09/17 19:53:59;;;;;;;28.12;25.10;;;25.70;58.70;;;;;;4736166;55;20997;-32
2021/09/17 19:59:00;;;;;;;28.60;24.55;;;25.70;59.30;;;;;;4738154;55;21006;-33
2021/09/17 20:04:01;;;;;;;29.48;25.75;;;25.70;58.70;;;;;;4739749;55;21072;-31
2021/09/17 20:09:02;;;;;;;27.55;24.27;;;25.70;58.70;;;;;;4749125;55;21064;-30
2021/09/17 20:14:03;;;;;;;27.00;24.02;;;25.60;58.60;;;;;;4730321;56;21100;-33
2021/09/17 20:19:05;;;;;;;28.17;24.20;;;25.60;58.60;;;;;;4756545;55;21017;-34
2021/09/17 20:24:10;;;;;;;26.00;23.20;;;25.70;58.70;;;;;;4765225;54;20986;-30
2021/09/17 20:29:13;;;;;;;25.67;22.60;;;25.60;58.60;;;;;;4732242;55;21476;-33
2021/09/17 20:34:18;;;;;;;28.00;23.45;;;25.60;58.60;;;;;;4753188;54;21579;-32
2021/09/17 20:39:20;;;;;;;26.12;22.50;;;25.60;58.60;;;;;;4763940;54;21178;-30
2021/09/17 20:44:21;;;;;;;24.83;22.13;;;25.60;58.60;;;;;;4731482;58;21102;-33
2021/09/17 20:49:21;;;;;;;25.30;22.70;;;25.60;58.60;;;;;;4765771;55;21077;-30
2021/09/17 20:54:22;;;;;;;25.42;22.05;;;25.60;58.60;;;;;;4773014;55;21538;-32
2021/09/17 20:59:25;;;;;;;26.27;22.80;;;25.60;58.60;;;;;;4744180;55;21689;-31
2021/09/17 21:04:26;;;;;;;25.92;22.92;;;25.60;58.50;;;;;;4732043;59;21590;-30
2021/09/17 21:09:27;;;;;;;25.00;21.95;;;25.60;58.50;;;;;;4742728;55;21054;-32
2021/09/17 21:14:28;;;;;;;25.25;21.87;;;25.60;58.60;;;;;;4731816;55;21125;-32
2021/09/17 21:19:29;;;;;;;26.60;22.25;;;25.60;58.50;;;;;;4768834;55;21013;-30
2021/09/17 21:24:29;;;;;;;24.90;22.30;;;25.60;58.50;;;;;;4736073;55;21037;-32
2021/09/17 21:29:30;;;;;;;24.05;21.45;;;25.60;58.40;;;;;;4735602;54;21045;-28
2021/09/17 21:34:31;;;;;;;23.67;21.12;;;25.60;58.40;;;;;;4783584;55;21053;-25
2021/09/17 21:39:32;;;;;;;23.12;20.02;;;25.60;58.40;;;;;;4806520;54;21409;-31
2021/09/17 21:44:34;;;;;;;22.90;20.37;;;25.60;58.40;;;;;;4731369;55;21037;-29
2021/09/17 21:49:34;;;;;;;23.35;20.85;;;25.60;58.40;;;;;;4748398;55;22395;-33
2021/09/17 21:54:35;;;;;;;22.85;20.40;;;25.60;58.30;;;;;;4743935;55;21141;-33
2021/09/17 21:59:36;;;;;;;22.48;20.08;;;25.50;58.20;;;;;;4734014;55;21077;-31
2021/09/17 22:04:37;;;;;;;22.40;20.08;;;25.50;58.20;;;;;;4748635;55;21033;-32
2021/09/17 22:09:38;;;;;;;21.62;19.37;;;25.50;58.20;;;;;;4731174;59;21135;-36
2021/09/17 22:14:39;;;;;;;22.80;19.70;;;25.60;58.30;;;;;;4748626;55;21117;-32
2021/09/17 22:19:40;;;;;;;20.58;18.37;;;25.60;58.20;;;;;;4751165;55;21009;-32
2021/09/17 22:24:40;;;;;;;21.90;19.55;;;25.60;58.10;;;;;;4751541;54;21022;-32
2021/09/17 22:29:41;;;;;;;20.62;18.48;;;25.50;58.10;;;;;;4747949;55;21142;-26
2021/09/17 22:34:42;;;;;;;21.10;18.80;;;25.50;58.00;;;;;;4733244;55;21500;-31
2021/09/17 22:39:43;;;;;;;19.77;17.77;;;25.60;58.00;;;;;;4752730;54;21484;-31
2021/09/17 22:44:44;;;;;;;19.58;17.55;;;25.50;58.00;;;;;;4731175;59;21037;-32
2021/09/17 22:49:45;;;;;;;19.25;17.25;;;25.60;58.00;;;;;;4753529;55;21955;-30
2021/09/17 22:54:45;;;;;;;19.85;17.75;;;25.60;58.00;;;;;;4746052;54;21021;-30
2021/09/17 22:59:46;;;;;;;20.23;18.12;;;25.50;57.90;;;;;;4731255;59;20993;-31
2021/09/17 23:04:47;;;;;;;19.83;17.58;;;25.50;57.90;;;;;;4742896;55;21021;-26
2021/09/17 23:09:48;;;;;;;19.45;17.37;;;25.60;57.80;;;;;;4755276;55;20997;-32
2021/09/17 23:14:49;;;;;;;18.17;16.30;;;25.50;57.80;;;;;;4741307;55;21053;-33
2021/09/17 23:19:49;;;;;;;18.05;16.25;;;25.50;57.80;;;;;;4734365;55;21081;-33
2021/09/17 23:24:50;;;;;;;18.20;16.37;;;25.50;57.70;;;;;;4731134;59;21053;-32
2021/09/17 23:29:51;;;;;;;18.70;16.70;;;25.50;57.70;;;;;;4732706;55;20997;-30
2021/09/17 23:34:52;;;;;;;17.30;15.45;;;25.50;57.80;;;;;;4731326;59;21049;-33
2021/09/17 23:39:53;;;;;;;18.27;16.48;;;25.50;57.70;;;;;;4733052;55;21009;-32
2021/09/17 23:44:53;;;;;;;17.92;16.12;;;25.50;57.70;;;;;;4733590;55;21479;-29
2021/09/17 23:49:54;;;;;;;17.48;15.48;;;25.50;57.60;;;;;;4733380;55;21037;-32
2021/09/17 23:54:55;;;;;;;17.52;15.73;;;25.50;57.70;;;;;;4734416;54;21057;-32
2021/09/17 23:59:56;;;;;;;17.75;15.95;;;25.50;57.60;;;;;;4745525;55;21049;-34
